KCVO - Corvallis, OR
Updated: Mon, 15-Oct-2018 12:56am PDT
Clear
Clear
 Wind from WNW
Wind: WNW 5 mph , 7 km/h
Temperature: 41°F , 5°C
Wind Chill: 38°F , 3°C
Dew Point: 30°F , -1°C
Humidity: 66%
Barometer: 30.25 inHg , 1024.4 hPa
Clouds: Clear
Visibility: 10 miles , 16 km
2018/10/15 07:56 KCVO 150756Z AUTO 30004KT 10SM CLR 05/M01 A3025 RMK AO2 SLP246 T00501006 402330000